Time;durP1;ratioP1;P1;durP2;ratioP2;P2;SDS_P1;SDS_P2;PMS_P1;PMS_P2;Temp;Humidity;BMP_temperature;BMP_pressure;BME280_temperature;BME280_humidity;BME280_pressure;Samples;Min_cycle;Max_cycle;Signal;HPM_P1;HPM_P2
2022/08/26 03:13:25;;;;;;;23.40;10.40;;;;;;;14.99;100.00;98909.50;4661788;74;22860;-83
2022/08/26 03:19:26;;;;;;;18.48;10.93;;;;;;;14.91;100.00;98912.12;4575500;75;20977;-84
2022/08/26 03:25:27;;;;;;;19.82;11.57;;;;;;;14.91;100.00;98908.59;4575968;75;21065;-84
2022/08/26 03:31:29;;;;;;;16.00;10.95;;;;;;;14.93;100.00;98902.06;4568397;75;21046;-84
2022/08/26 03:37:31;;;;;;;16.70;11.48;;;;;;;14.94;100.00;98898.91;4566363;75;20991;-84
2022/08/26 03:43:33;;;;;;;18.20;10.25;;;;;;;14.98;100.00;98901.05;4596609;75;21038;-83
2022/08/26 03:49:34;;;;;;;18.98;10.43;;;;;;;15.04;100.00;98910.45;4585456;75;21957;-83
2022/08/26 03:55:36;;;;;;;24.52;11.05;;;;;;;15.24;100.00;98905.94;4592840;75;21022;-85
2022/08/26 04:01:37;;;;;;;18.32;10.98;;;;;;;15.28;100.00;98911.42;4553172;75;21652;-84
2022/08/26 04:07:41;;;;;;;18.32;11.10;;;;;;;15.16;100.00;98916.84;4587149;75;20987;-84
2022/08/26 04:13:46;;;;;;;20.23;10.85;;;;;;;15.11;100.00;98914.52;4589930;75;20997;-85
2022/08/26 04:19:47;;;;;;;16.87;11.10;;;;;;;15.07;100.00;98914.36;4581855;75;20932;-84
2022/08/26 04:25:49;;;;;;;20.35;10.48;;;;;;;15.07;100.00;98907.46;4579266;75;20929;-84
2022/08/26 04:31:54;;;;;;;17.85;9.88;;;;;;;15.04;100.00;98907.69;4580579;75;21008;-83
2022/08/26 04:37:56;;;;;;;14.83;8.93;;;;;;;15.02;100.00;98903.75;4575804;75;21692;-83
2022/08/26 04:43:57;;;;;;;19.65;12.55;;;;;;;15.02;100.00;98904.55;4573678;75;20948;-83
2022/08/26 04:49:59;;;;;;;20.70;12.30;;;;;;;15.06;100.00;98893.50;4561334;75;21010;-84
2022/08/26 04:56:01;;;;;;;16.55;9.65;;;;;;;15.12;100.00;98893.25;4568577;75;21927;-83
2022/08/26 05:02:02;;;;;;;18.00;10.65;;;;;;;15.31;100.00;98901.75;4580434;75;20977;-84
2022/08/26 05:08:04;;;;;;;23.07;10.95;;;;;;;15.46;100.00;98898.27;4591283;75;21077;-84
2022/08/26 05:14:05;;;;;;;19.75;11.48;;;;;;;15.57;100.00;98899.73;4579798;75;21051;-83
2022/08/26 05:20:10;;;;;;;18.25;11.05;;;;;;;15.72;100.00;98907.28;4554931;75;21630;-83
2022/08/26 05:26:11;;;;;;;23.10;10.70;;;;;;;15.88;100.00;98895.66;4571312;75;20948;-83
2022/08/26 05:32:14;;;;;;;18.55;9.60;;;;;;;16.04;100.00;98899.39;4579433;75;21499;-83
2022/08/26 05:38:19;;;;;;;16.57;9.93;;;;;;;16.21;100.00;98896.24;4545414;75;20956;-83
2022/08/26 05:44:21;;;;;;;15.68;10.18;;;;;;;16.43;100.00;98894.73;4584300;75;21520;-83
2022/08/26 05:50:24;;;;;;;19.17;9.10;;;;;;;16.61;100.00;98891.95;4590873;75;21035;-84
2022/08/26 05:56:26;;;;;;;14.85;8.38;;;;;;;16.79;100.00;98898.58;4583989;75;21044;-83
2022/08/26 06:02:28;;;;;;;12.88;8.38;;;;;;;16.92;100.00;98889.30;4566114;75;21054;-83
2022/08/26 06:08:29;;;;;;;17.32;7.83;;;;;;;17.07;100.00;98885.69;4584429;75;22284;-83
2022/08/26 06:14:30;;;;;;;14.05;8.08;;;;;;;17.28;100.00;98888.10;4481271;77;21585;-85
2022/08/26 06:20:32;;;;;;;15.80;7.37;;;;;;;17.51;100.00;98886.72;4489528;76;20961;-85
2022/08/26 06:26:35;;;;;;;17.25;7.10;;;;;;;17.76;100.00;98894.58;4500258;76;21029;-84
2022/08/26 06:32:37;;;;;;;15.65;7.85;;;;;;;18.04;100.00;98892.01;4483153;77;20966;-85
2022/08/26 06:38:40;;;;;;;17.10;6.80;;;;;;;18.30;100.00;98891.08;4488661;77;21374;-84
2022/08/26 06:44:42;;;;;;;13.10;7.28;;;;;;;18.53;100.00;98888.22;4491911;77;22192;-85
2022/08/26 06:50:44;;;;;;;13.65;7.12;;;;;;;18.75;100.00;98888.50;4493165;77;22107;-84
2022/08/26 06:56:46;;;;;;;13.35;6.72;;;;;;;18.99;100.00;98900.22;4491179;77;20977;-85
2022/08/26 07:02:48;;;;;;;17.37;7.15;;;;;;;19.21;100.00;98901.27;4479596;77;20985;-85
2022/08/26 07:08:52;;;;;;;12.23;7.20;;;;;;;19.42;100.00;98901.53;4495795;75;21025;-85
2022/08/26 07:14:54;;;;;;;11.48;7.22;;;;;;;19.63;100.00;98893.25;4579866;75;21046;-84
2022/08/26 07:20:55;;;;;;;13.18;6.45;;;;;;;19.82;100.00;98895.11;4590524;75;20983;-85
2022/08/26 07:27:04;;;;;;;15.95;7.53;;;;;;;20.03;100.00;98893.11;4585770;75;21615;-87
2022/08/26 07:33:07;;;;;;;15.40;6.83;;;;;;;20.27;100.00;98889.48;4590411;75;21022;-85
2022/08/26 07:39:08;;;;;;;14.87;8.20;;;;;;;20.56;100.00;98881.27;4580614;75;21050;-84
2022/08/26 07:45:10;;;;;;;15.08;6.97;;;;;;;20.86;100.00;98877.14;4581579;75;21031;-85
2022/08/26 07:51:15;;;;;;;11.33;6.37;;;;;;;21.18;99.68;98868.55;4601093;75;21354;-86
2022/08/26 07:57:16;;;;;;;15.00;7.00;;;;;;;21.47;98.90;98870.55;4579554;75;21108;-83
2022/08/26 08:03:19;;;;;;;13.22;6.97;;;;;;;21.83;98.09;98864.52;4573220;75;21013;-82
2022/08/26 08:09:23;;;;;;;13.43;6.90;;;;;;;22.25;96.83;98867.91;4577253;75;21008;-85
2022/08/26 08:15:28;;;;;;;16.52;6.55;;;;;;;22.64;95.41;98865.81;4580472;75;21051;-86
2022/08/26 08:21:30;;;;;;;14.53;6.50;;;;;;;23.03;94.76;98865.02;4602855;75;21016;-86
2022/08/26 08:27:36;;;;;;;14.03;6.53;;;;;;;23.29;93.69;98861.36;4583596;75;21060;-86
2022/08/26 08:33:52;;;;;;;12.18;6.12;;;;;;;23.57;92.64;98859.39;4505112;76;21520;-86
2022/08/26 08:39:54;;;;;;;14.75;6.50;;;;;;;23.83;91.77;98855.03;4477938;76;21022;-86
2022/08/26 08:46:00;;;;;;;16.25;5.87;;;;;;;24.07;90.43;98857.37;4480093;76;20935;-86
2022/08/26 08:52:15;;;;;;;10.15;5.58;;;;;;;24.28;89.54;98853.59;4472030;76;21034;-88
2022/08/26 08:58:23;;;;;;;16.25;5.67;;;;;;;24.58;87.38;98851.95;4464099;76;20978;-86
2022/08/26 09:05:01;;;;;;;13.55;6.67;;;;;;;24.83;87.29;98841.59;4464736;76;20998;-85
2022/08/26 09:11:03;;;;;;;12.20;5.55;;;;;;;25.28;84.66;98816.11;4482124;77;21542;-85
2022/08/26 09:17:31;;;;;;;12.58;5.53;;;;;;;25.28;84.66;98816.11;4537905;75;20965;-86
2022/08/26 09:23:38;;;;;;;12.47;5.87;;;;;;;25.53;84.19;98815.02;4562932;76;22000;-87
2022/08/26 09:29:43;;;;;;;14.75;6.22;;;;;;;26.14;82.72;98825.99;4562842;76;20969;-86
2022/08/26 09:35:53;;;;;;;9.83;5.62;;;;;;;26.71;81.54;98830.66;4540744;76;21396;-85
2022/08/26 09:42:28;;;;;;;13.15;5.50;;;;;;;27.44;80.34;98819.33;4518667;76;21012;-84
2022/08/26 09:48:35;;;;;;;10.58;5.67;;;;;;;28.46;79.35;98820.64;4573801;76;21001;-84
2022/08/26 09:54:38;;;;;;;11.05;5.83;;;;;;;29.36;77.25;98809.48;4548868;76;20979;-85
2022/08/26 10:01:02;;;;;;;15.58;5.33;;;;;;;30.09;76.01;98812.80;4540816;76;20997;-85
2022/08/26 10:07:39;;;;;;;12.35;4.97;;;;;;;30.64;73.97;98794.34;4558127;76;21031;-85
2022/08/26 10:13:59;;;;;;;10.28;4.60;;;;;;;31.27;71.90;98793.20;4563104;75;20977;-84
2022/08/26 10:20:15;;;;;;;9.25;5.05;;;;;;;31.71;69.29;98787.34;4578581;76;21503;-86
2022/08/26 10:26:47;;;;;;;13.28;5.58;;;;;;;32.15;67.84;98785.55;4574067;76;20945;-85
2022/08/26 10:33:08;;;;;;;8.20;5.42;;;;;;;32.06;61.91;98773.89;4566665;76;20996;-84
2022/08/26 10:39:15;;;;;;;8.70;4.20;;;;;;;31.95;57.89;98765.48;4553760;76;21023;-85
2022/08/26 10:45:48;;;;;;;13.70;6.20;;;;;;;32.54;58.97;98766.98;4529817;76;21004;-84
2022/08/26 10:52:03;;;;;;;13.78;4.67;;;;;;;33.12;58.71;98759.66;4564687;76;20968;-87
2022/08/26 10:58:39;;;;;;;12.78;4.00;;;;;;;33.23;55.39;98756.69;4548661;76;21003;-85
2022/08/26 11:05:03;;;;;;;;;;;;;;;33.06;53.58;98758.21;4576413;76;21034;-84
2022/08/26 11:11:04;;;;;;;9.60;3.98;;;;;;;33.50;51.99;98750.56;4544405;76;20167;-87
2022/08/26 11:17:10;;;;;;;10.72;3.98;;;;;;;33.56;52.62;98748.44;4529441;76;20992;-85
2022/08/26 11:23:29;;;;;;;11.93;4.55;;;;;;;33.60;51.94;98733.27;4526379;76;21503;-86
2022/08/26 11:29:56;;;;;;;10.18;3.80;;;;;;;33.48;47.84;98739.00;4520460;76;21063;-87
2022/08/26 11:35:57;;;;;;;7.35;2.87;;;;;;;33.58;48.89;98729.45;4303449;80;21561;-86
2022/08/26 11:42:19;;;;;;;8.00;3.50;;;;;;;33.53;46.42;98726.81;4335740;76;20924;-87
2022/08/26 11:48:42;;;;;;;9.73;3.60;;;;;;;32.80;43.92;98719.67;4538096;76;20968;-87
2022/08/26 11:55:06;;;;;;;12.47;3.92;;;;;;;32.15;45.25;98715.55;4536507;76;21544;-85
2022/08/26 12:01:10;;;;;;;10.38;3.30;;;;;;;31.73;45.93;98708.36;4537535;76;20984;-87
2022/08/26 12:07:13;;;;;;;12.20;3.45;;;;;;;31.16;42.98;98702.77;4516722;76;20978;-86
2022/08/26 12:13:24;;;;;;;13.25;2.67;;;;;;;30.96;44.42;98686.80;4531560;76;20991;-87
2022/08/26 12:19:37;;;;;;;4.85;2.55;;;;;;;30.59;40.13;98687.14;4561845;76;21009;-85
2022/08/26 12:25:38;;;;;;;10.05;2.67;;;;;;;30.33;43.04;98679.00;4534239;76;21479;-86
2022/08/26 12:31:43;;;;;;;12.47;3.55;;;;;;;30.24;43.34;98686.30;4544598;76;21015;-87
2022/08/26 12:37:57;;;;;;;10.32;2.72;;;;;;;30.06;42.47;98671.92;4551778;76;20968;-87
2022/08/26 12:44:39;;;;;;;4.47;2.40;;;;;;;29.95;43.26;98664.24;4534315;76;20952;-87
2022/08/26 12:50:49;;;;;;;9.70;2.65;;;;;;;29.95;42.69;98664.88;4521971;76;21290;-87
2022/08/26 12:56:50;;;;;;;5.08;2.58;;;;;;;29.81;42.69;98659.63;4540077;76;20973;-86
2022/08/26 13:02:52;;;;;;;4.45;2.33;;;;;;;29.72;42.83;98660.52;4529469;76;20955;-86
2022/08/26 13:09:10;;;;;;;10.58;2.92;;;;;;;29.63;42.63;98655.11;4542073;76;21031;-85
2022/08/26 13:15:13;;;;;;;7.67;2.62;;;;;;;29.63;40.77;98643.83;4542534;76;21039;-86
2022/08/26 13:21:37;;;;;;;3.60;2.60;;;;;;;29.48;41.06;98644.69;4548933;76;20948;-86
2022/08/26 13:27:38;;;;;;;8.00;2.90;;;;;;;29.42;41.98;98637.65;4547042;76;21591;-85
2022/08/26 13:33:43;;;;;;;9.18;2.50;;;;;;;29.37;41.69;98635.59;4538795;76;21032;-87
2022/08/26 13:39:45;;;;;;;7.83;2.77;;;;;;;29.20;41.89;98638.23;4547832;76;21007;-87
2022/08/26 13:45:48;;;;;;;6.97;2.17;;;;;;;29.12;42.14;98633.74;4551328;76;20981;-88
2022/08/26 13:51:53;;;;;;;6.10;2.37;;;;;;;29.07;41.87;98635.90;4554170;76;21042;-87
2022/08/26 13:57:57;;;;;;;9.15;2.95;;;;;;;29.04;41.52;98635.48;4535926;76;21437;-87
2022/08/26 14:03:59;;;;;;;6.53;2.30;;;;;;;28.92;42.00;98629.69;4551499;76;20980;-87
2022/08/26 14:10:02;;;;;;;9.03;2.85;;;;;;;28.82;42.23;98625.55;4538482;76;21079;-86
2022/08/26 14:16:10;;;;;;;7.37;2.60;;;;;;;28.70;42.30;98614.89;4545412;76;20990;-87
2022/08/26 14:22:17;;;;;;;8.50;2.62;;;;;;;28.63;41.29;98614.58;4528613;76;21677;-87
2022/08/26 14:28:19;;;;;;;8.93;3.10;;;;;;;28.59;42.59;98614.06;4545949;76;21000;-88
2022/08/26 14:34:20;;;;;;;8.60;2.50;;;;;;;28.49;42.68;98620.55;4532597;76;20983;-88
2022/08/26 14:47:01;;;;;;;9.10;2.83;;;;;;;28.41;42.77;98617.30;4544490;76;21015;-87
2022/08/26 14:59:36;;;;;;;4.95;2.45;;;;;;;28.27;42.77;98627.44;4528645;76;22411;-88
2022/08/26 15:05:44;;;;;;;10.88;3.05;;;;;;;28.25;42.37;98615.93;4535257;76;20980;-87
2022/08/26 15:11:43;;;;;;;4.73;2.30;;;;;;;28.18;42.54;98622.02;4541634;76;21523;-89
2022/08/26 15:17:44;;;;;;;7.53;3.05;;;;;;;28.10;42.73;98618.12;4535634;76;21040;-87
2022/08/26 15:23:56;;;;;;;11.45;3.62;;;;;;;28.04;42.82;98614.51;4543919;76;21005;-90
2022/08/26 15:30:05;;;;;;;10.28;3.08;;;;;;;27.99;42.96;98626.48;4572143;76;21030;-89
2022/08/26 15:36:19;;;;;;;5.00;2.90;;;;;;;27.90;43.00;98624.50;4562093;76;21076;-89
2022/08/26 15:42:34;;;;;;;8.15;2.37;;;;;;;27.77;43.29;98618.51;4547537;76;20972;-89
2022/08/26 15:48:35;;;;;;;10.35;2.80;;;;;;;27.68;43.49;98615.86;4547367;76;21507;-88
2022/08/26 15:54:37;;;;;;;3.30;2.45;;;;;;;27.55;43.66;98611.42;4553257;76;21013;-88
2022/08/26 16:00:41;;;;;;;4.78;2.75;;;;;;;27.43;44.02;98612.60;4538231;76;21043;-88
2022/08/26 16:06:59;;;;;;;6.42;3.15;;;;;;;27.32;44.45;98610.31;4554080;76;20969;-89
2022/08/26 16:13:00;;;;;;;5.05;2.70;;;;;;;27.17;44.59;98607.58;4532507;76;21024;-87
2022/08/26 16:19:01;;;;;;;4.80;2.90;;;;;;;27.04;44.95;98607.20;4555551;76;21347;-87
2022/08/26 16:25:09;;;;;;;6.08;3.00;;;;;;;26.89;45.32;98603.70;4559379;76;20985;-88
2022/08/26 16:31:12;;;;;;;5.87;2.87;;;;;;;26.74;45.62;98596.64;4549789;76;20998;-88
2022/08/26 16:37:14;;;;;;;4.03;2.90;;;;;;;26.58;46.15;98587.35;4545136;76;21516;-87
2022/08/26 16:43:15;;;;;;;6.70;3.22;;;;;;;26.42;46.58;98585.88;4554833;76;20988;-87
2022/08/26 16:49:20;;;;;;;8.98;2.95;;;;;;;26.27;46.92;98591.42;4514458;76;21019;-88
2022/08/26 16:55:22;;;;;;;12.30;3.15;;;;;;;25.80;47.89;98560.27;4498017;76;21042;-90
2022/08/26 17:01:23;;;;;;;6.60;3.30;;;;;;;25.80;47.89;98560.27;4490397;76;21567;-89
2022/08/26 17:07:26;;;;;;;8.55;3.60;;;;;;;25.73;48.35;98569.84;4503498;76;22104;-89
2022/08/26 17:13:28;;;;;;;8.30;4.30;;;;;;;25.61;48.76;98577.17;4497345;77;21035;-89
2022/08/26 17:19:30;;;;;;;10.38;4.55;;;;;;;25.45;48.90;98576.30;4338913;77;9999595;-89
2022/08/26 17:25:34;;;;;;;9.75;4.60;;;;;;;25.30;48.89;98573.47;4463458;76;21024;-90
2022/08/26 17:31:36;;;;;;;11.03;4.85;;;;;;;25.17;48.98;98575.77;4442495;77;20999;-89
2022/08/26 17:37:38;;;;;;;8.58;4.50;;;;;;;25.06;49.06;98574.83;4431651;76;21085;-87
2022/08/26 17:43:41;;;;;;;9.50;4.17;;;;;;;24.90;49.23;98574.64;4460248;76;20980;-89
2022/08/26 17:49:45;;;;;;;8.98;4.28;;;;;;;24.75;49.25;98568.87;4436158;77;21074;-88
2022/08/26 17:55:47;;;;;;;9.68;4.83;;;;;;;24.58;49.48;98567.91;4461786;76;21002;-89
2022/08/26 18:01:54;;;;;;;10.13;6.03;;;;;;;24.42;49.72;98572.55;4464637;76;21589;-88
2022/08/26 18:07:57;;;;;;;;;;;;;;;24.25;50.03;98580.43;4451215;77;21590;-88
2022/08/26 18:13:59;;;;;;;12.98;6.97;;;;;;;24.09;50.27;98580.22;4483514;77;20123;-89
2022/08/26 18:20:15;;;;;;;11.95;7.25;;;;;;;23.91;50.48;98585.90;4454293;77;20956;-89
2022/08/26 18:26:37;;;;;;;18.87;9.83;;;;;;;23.77;50.91;98586.59;4472146;77;20998;-88
2022/08/26 18:32:40;;;;;;;26.90;11.53;;;;;;;23.58;51.41;98590.70;4456700;76;21946;-87
2022/08/26 18:38:42;;;;;;;35.28;16.62;;;;;;;23.36;51.95;98591.55;4484817;76;20987;-88
2022/08/26 18:44:44;;;;;;;39.08;20.27;;;;;;;23.09;52.52;98595.77;4457882;76;21010;-87
2022/08/26 18:50:48;;;;;;;96.92;44.88;;;;;;;22.61;53.58;98596.13;4329100;77;9999623;-87
2022/08/26 18:56:50;;;;;;;43.65;21.20;;;;;;;22.20;55.23;98597.28;4456072;77;20969;-87
2022/08/26 19:02:54;;;;;;;47.27;22.15;;;;;;;21.76;55.87;98599.48;4471913;77;21875;-86
2022/08/26 19:08:56;;;;;;;19.65;11.38;;;;;;;21.49;57.27;98595.94;4477246;76;21024;-86
2022/08/26 19:14:57;;;;;;;23.27;13.43;;;;;;;21.20;57.89;98590.53;4333015;80;21095;-86
2022/08/26 19:21:02;;;;;;;21.87;11.30;;;;;;;20.95;59.91;98587.86;4322198;80;21394;-86
2022/08/26 19:27:04;;;;;;;16.65;8.90;;;;;;;20.68;61.07;98587.66;4324087;79;21079;-86
2022/08/26 19:33:06;;;;;;;18.98;7.90;;;;;;;20.50;62.45;98587.52;4331999;80;21621;-86
2022/08/26 19:39:08;;;;;;;19.15;7.83;;;;;;;20.22;63.03;98588.50;4322882;80;20959;-86
2022/08/26 19:45:17;;;;;;;13.20;7.17;;;;;;;19.84;63.66;98589.93;4319372;80;21002;-86
2022/08/26 19:51:28;;;;;;;11.90;7.12;;;;;;;19.63;64.74;98594.16;4337448;79;21038;-85
2022/08/26 19:57:32;;;;;;;15.45;6.87;;;;;;;19.55;65.86;98594.81;4329159;80;20967;-86
2022/08/26 20:03:35;;;;;;;12.37;6.85;;;;;;;19.47;66.01;98592.88;4340320;80;21026;-86
2022/08/26 20:09:38;;;;;;;12.75;7.40;;;;;;;19.27;67.15;98598.42;4306829;80;20957;-85
2022/08/26 20:15:39;;;;;;;12.70;6.70;;;;;;;19.20;68.07;98608.36;4394386;78;21110;-86
2022/08/26 20:21:41;;;;;;;14.58;7.22;;;;;;;19.16;68.35;98611.23;4489863;76;20988;-86
2022/08/26 20:27:42;;;;;;;13.62;7.33;;;;;;;19.26;69.31;98619.08;4487513;76;21037;-86
2022/08/26 20:33:44;;;;;;;11.73;6.95;;;;;;;19.10;69.32;98624.09;4496093;76;20992;-86
2022/08/26 20:39:46;;;;;;;13.48;6.80;;;;;;;18.99;69.55;98631.16;4462226;77;21002;-86
2022/08/26 20:45:48;;;;;;;14.50;7.45;;;;;;;18.89;70.26;98630.23;4503994;77;21346;-85
2022/08/26 20:51:50;;;;;;;22.40;10.00;;;;;;;18.78;70.67;98635.92;4512195;77;21030;-85
2022/08/26 20:57:52;;;;;;;17.12;8.33;;;;;;;18.65;71.15;98644.19;4496369;76;20952;-85
2022/08/26 21:03:55;;;;;;;19.57;9.53;;;;;;;18.45;72.30;98645.69;4495714;77;21020;-86
2022/08/26 21:09:57;;;;;;;16.80;9.25;;;;;;;18.33;72.55;98656.67;4504420;76;21449;-86
2022/08/26 21:15:59;;;;;;;17.07;9.13;;;;;;;18.22;72.84;98650.61;4350876;80;21087;-85
2022/08/26 21:22:01;;;;;;;27.37;10.35;;;;;;;18.07;73.79;98641.86;4296368;80;21056;-85
2022/08/26 21:28:02;;;;;;;28.80;12.23;;;;;;;17.91;74.31;98647.42;4458428;76;21290;-86
2022/08/26 21:34:04;;;;;;;22.50;12.13;;;;;;;17.80;74.97;98647.48;4299162;80;20971;-85
2022/08/26 21:40:08;;;;;;;21.30;11.38;;;;;;;17.70;75.67;98646.52;4475317;76;21478;-85
2022/08/26 21:46:15;;;;;;;29.63;12.95;;;;;;;17.60;76.03;98651.70;4336740;79;20953;-84
2022/08/26 21:52:16;;;;;;;25.72;11.95;;;;;;;17.40;76.48;98642.61;4459585;77;20996;-85
2022/08/26 21:58:18;;;;;;;20.80;10.85;;;;;;;17.28;76.86;98643.27;4319482;79;21015;-85
2022/08/26 22:04:19;;;;;;;17.80;9.53;;;;;;;17.16;77.42;98639.16;4468689;77;21550;-85
2022/08/26 22:10:21;;;;;;;12.45;7.90;;;;;;;17.02;78.07;98638.08;4472567;77;21699;-85
2022/08/26 22:16:25;;;;;;;13.98;7.37;;;;;;;16.92;78.32;98634.94;4473293;76;20996;-85
2022/08/26 22:22:28;;;;;;;12.80;7.25;;;;;;;16.85;79.34;98638.45;4498501;77;20970;-85
2022/08/26 22:28:30;;;;;;;13.13;6.87;;;;;;;16.75;79.69;98628.37;4499151;76;21050;-86
2022/08/26 22:34:32;;;;;;;12.43;7.08;;;;;;;16.61;80.15;98645.22;4519490;76;20969;-85
2022/08/26 22:40:35;;;;;;;11.48;7.53;;;;;;;16.50;79.99;98643.25;4493017;77;20987;-84
2022/08/26 22:46:37;;;;;;;11.00;6.70;;;;;;;16.46;80.68;98653.59;4319928;80;20988;-85
2022/08/26 22:52:40;;;;;;;9.78;6.35;;;;;;;16.41;80.96;98645.14;4341204;80;20981;-84
2022/08/26 22:58:43;;;;;;;16.80;6.20;;;;;;;16.33;81.36;98647.08;4454980;79;21008;-85
2022/08/26 23:04:44;;;;;;;12.15;5.80;;;;;;;16.26;82.04;98642.45;4339767;80;21031;-85
2022/08/26 23:10:50;;;;;;;20.30;6.45;;;;;;;16.29;82.73;98633.91;4469620;77;20959;-84
2022/08/26 23:16:52;;;;;;;15.83;7.33;;;;;;;16.29;82.84;98629.18;4485604;76;21051;-85
2022/08/26 23:22:54;;;;;;;23.35;8.73;;;;;;;16.23;83.30;98631.46;4473047;77;21526;-85
2022/08/26 23:28:56;;;;;;;17.50;8.50;;;;;;;16.15;82.96;98624.50;4477936;77;21956;-86
2022/08/26 23:34:58;;;;;;;20.45;8.90;;;;;;;16.01;83.44;98614.48;4482370;77;20977;-85
2022/08/26 23:40:59;;;;;;;17.75;8.98;;;;;;;15.94;83.63;98611.06;4472072;77;21648;-85
2022/08/26 23:47:02;;;;;;;20.82;9.20;;;;;;;15.98;84.82;98607.04;4454182;77;21007;-85
2022/08/26 23:53:07;;;;;;;18.90;7.85;;;;;;;15.98;84.65;98599.34;4487086;76;21432;-85
2022/08/26 23:59:08;;;;;;;14.47;8.35;;;;;;;15.87;85.01;98594.60;4473000;77;20983;-86
